Quitandinha, Brazil
Current Conditions -  °F | °C
As of 10:00 AM on Monday 24 Nov 2014 (Local Time) from SBCT Reporting Station
Scattered Clouds Scattered Clouds  
Wind Chill: 70°   Ceiling: Unl
Heat Index: 70°   Visibility: 6mi
Dew Point: 61°   Wind: 10mph
Humidity: 73%   Direction: 60°ENE
Pressure: 30.12"   Gusts: NA
Location:  25.87°S, 49.5°W
Report Text: SBCT 241200Z 06009KT 9999 SCT015 21/16 Q1020
Loading
Personal Weather Stations






























Interactive Weather Map New forecast layout! Learn more

10-Day Weather Forecast

Advertisements
Track Severe Weather on mobile